createdAt,value
2023-01-19T00:02:18.763Z,1.80
2023-01-19T00:04:50.863Z,1.82
2023-01-19T00:07:23.072Z,1.81
2023-01-19T00:09:55.027Z,1.81
2023-01-19T00:12:27.721Z,1.82
2023-01-19T00:14:59.577Z,1.83
2023-01-19T00:17:31.918Z,1.85
2023-01-19T00:20:04.360Z,1.86
2023-01-19T00:22:36.673Z,1.86
2023-01-19T00:25:09.981Z,1.87
2023-01-19T00:27:42.608Z,1.88
2023-01-19T00:30:16.305Z,1.89
2023-01-19T00:32:48.551Z,1.90
2023-01-19T00:35:20.667Z,1.90
2023-01-19T00:37:52.791Z,1.89
2023-01-19T00:40:25.021Z,1.88
2023-01-19T00:42:58.661Z,1.89
2023-01-19T00:45:30.842Z,1.89
2023-01-19T00:48:02.881Z,1.89
2023-01-19T00:50:35.472Z,1.89
2023-01-19T00:53:07.508Z,1.91
2023-01-19T00:55:39.294Z,1.90
2023-01-19T00:58:11.152Z,1.90
2023-01-19T01:00:43.258Z,1.90
2023-01-19T01:03:15.446Z,1.89
2023-01-19T01:05:47.234Z,1.89
2023-01-19T01:08:19.016Z,1.90
2023-01-19T01:10:51.248Z,1.89
2023-01-19T01:13:26.190Z,1.88
2023-01-19T01:15:59.849Z,1.88
2023-01-19T01:18:31.614Z,1.87
2023-01-19T01:21:07.597Z,1.87
2023-01-19T01:23:39.542Z,1.90
2023-01-19T01:26:11.532Z,1.91
2023-01-19T01:28:43.321Z,1.92
2023-01-19T01:31:15.312Z,1.92
2023-01-19T01:33:47.135Z,1.93
2023-01-19T01:36:20.841Z,1.93
2023-01-19T01:38:52.698Z,1.93
2023-01-19T01:41:26.024Z,1.94
2023-01-19T01:44:01.868Z,1.95
2023-01-19T01:46:34.132Z,1.96
2023-01-19T01:49:07.449Z,1.97
2023-01-19T01:51:42.154Z,1.98
2023-01-19T01:54:19.239Z,1.99
2023-01-19T01:56:53.316Z,2.01
2023-01-19T01:59:26.869Z,2.01
2023-01-19T02:02:18.140Z,2.02
2023-01-19T02:04:54.256Z,2.03
2023-01-19T02:07:49.234Z,2.03
2023-01-19T02:10:39.015Z,2.04
2023-01-19T02:13:21.015Z,2.06
2023-01-19T02:15:54.299Z,2.07
2023-01-19T02:18:27.840Z,2.07
2023-01-19T02:21:05.555Z,2.08
2023-01-19T02:23:41.701Z,2.07
2023-01-19T02:26:16.063Z,2.07
2023-01-19T02:28:50.568Z,2.08
2023-01-19T02:31:22.606Z,2.08
2023-01-19T02:33:55.753Z,2.08
2023-01-19T02:36:29.922Z,2.10
2023-01-19T02:39:02.708Z,2.09
2023-01-19T02:41:39.155Z,2.10
2023-01-19T02:44:12.041Z,2.11
2023-01-19T02:46:43.812Z,2.11
2023-01-19T02:49:15.931Z,2.11
2023-01-19T02:51:47.689Z,2.12
2023-01-19T02:54:35.037Z,2.13
2023-01-19T02:57:17.690Z,2.13
2023-01-19T03:00:01.135Z,2.13
2023-01-19T03:02:40.618Z,2.12
2023-01-19T03:05:23.105Z,2.13
2023-01-19T03:08:01.340Z,2.13
2023-01-19T03:10:37.891Z,2.12
2023-01-19T03:13:14.440Z,2.12
2023-01-19T03:15:50.440Z,2.12
2023-01-19T03:18:24.499Z,2.11
2023-01-19T03:20:59.035Z,2.11
2023-01-19T03:23:33.439Z,2.11
2023-01-19T03:26:06.552Z,2.12
2023-01-19T03:28:39.705Z,2.12
2023-01-19T03:31:14.199Z,2.12
2023-01-19T03:33:48.947Z,2.13
2023-01-19T03:36:22.896Z,2.14
2023-01-19T03:38:55.673Z,2.14
2023-01-19T03:41:29.199Z,2.14
2023-01-19T03:44:01.737Z,2.12
2023-01-19T03:46:34.148Z,2.13
2023-01-19T03:49:06.181Z,2.12
2023-01-19T03:51:39.929Z,2.12
2023-01-19T03:54:12.886Z,2.10
2023-01-19T03:56:44.958Z,2.09
2023-01-19T03:59:17.804Z,2.09
2023-01-19T04:01:49.765Z,2.09
2023-01-19T04:04:21.605Z,2.07
2023-01-19T04:06:53.830Z,2.05
2023-01-19T04:09:25.949Z,2.04
2023-01-19T04:11:58.026Z,2.03
2023-01-19T04:14:29.812Z,2.02
2023-01-19T04:17:01.656Z,2.02
2023-01-19T04:19:33.733Z,2.02
2023-01-19T04:22:05.699Z,2.03
2023-01-19T04:24:37.545Z,2.04
2023-01-19T04:27:09.351Z,2.06
2023-01-19T04:29:41.138Z,2.06
2023-01-19T04:32:14.144Z,2.07
2023-01-19T04:34:46.349Z,2.07
2023-01-19T04:37:18.208Z,2.08
2023-01-19T04:39:50.200Z,2.08
2023-01-19T04:42:22.365Z,2.09
2023-01-19T04:44:54.133Z,2.09
2023-01-19T04:47:25.950Z,2.09
2023-01-19T04:49:57.884Z,2.10
2023-01-19T04:52:35.686Z,2.09
2023-01-19T04:55:09.498Z,2.08
2023-01-19T04:57:41.318Z,2.07
2023-01-19T05:00:15.408Z,2.07
2023-01-19T05:02:45.753Z,2.07
2023-01-19T05:05:18.430Z,2.06
2023-01-19T05:07:50.502Z,2.05
2023-01-19T05:10:22.333Z,2.04
2023-01-19T05:12:54.182Z,2.01
2023-01-19T05:15:26.088Z,1.99
2023-01-19T05:17:58.680Z,1.98
2023-01-19T05:20:30.781Z,1.97
2023-01-19T05:23:02.928Z,1.96
2023-01-19T05:25:35.491Z,1.93
2023-01-19T05:28:07.709Z,1.91
2023-01-19T05:30:39.651Z,1.88
2023-01-19T05:33:11.475Z,1.85
2023-01-19T05:35:43.514Z,1.83
2023-01-19T05:38:20.831Z,1.82
2023-01-19T05:40:57.344Z,1.81
2023-01-19T05:43:29.158Z,1.82
2023-01-19T05:46:01.030Z,1.81
2023-01-19T05:48:32.865Z,1.81
2023-01-19T05:51:05.184Z,1.80
2023-01-19T05:53:37.099Z,1.79
2023-01-19T05:56:10.877Z,1.77
2023-01-19T05:58:42.777Z,1.76
2023-01-19T06:01:14.670Z,1.74
2023-01-19T06:03:47.488Z,1.74
2023-01-19T06:06:19.478Z,1.73
2023-01-19T06:08:51.340Z,1.73
2023-01-19T06:11:23.196Z,1.73
2023-01-19T06:13:55.481Z,1.72
2023-01-19T06:19:23.509Z,1.70
2023-01-19T06:21:55.595Z,1.69
2023-01-19T06:24:28.011Z,1.68
2023-01-19T06:27:00.488Z,1.68
2023-01-19T06:29:32.683Z,1.68
2023-01-19T06:32:04.655Z,1.69
2023-01-19T06:34:36.382Z,1.69
2023-01-19T06:37:12.318Z,1.69
2023-01-19T06:39:45.617Z,1.69
2023-01-19T06:42:17.553Z,1.69
2023-01-19T06:44:49.429Z,1.70
2023-01-19T06:47:21.528Z,1.70
2023-01-19T06:49:53.435Z,1.70
2023-01-19T06:52:25.372Z,1.70
2023-01-19T06:54:57.164Z,1.70
2023-01-19T06:57:28.915Z,1.71
2023-01-19T07:00:02.154Z,1.71
2023-01-19T07:02:34.081Z,1.71
2023-01-19T07:05:07.111Z,1.72
2023-01-19T07:07:40.065Z,1.72
2023-01-19T07:10:15.813Z,1.73
2023-01-19T07:12:47.779Z,1.75
2023-01-19T07:15:22.981Z,1.77
2023-01-19T07:17:54.767Z,1.80
2023-01-19T07:20:26.562Z,1.83
2023-01-19T07:23:00.199Z,1.86
2023-01-19T07:25:32.430Z,1.89
2023-01-19T07:28:04.627Z,1.91
2023-01-19T07:30:36.613Z,1.94
2023-01-19T07:33:08.610Z,1.96
2023-01-19T07:35:40.622Z,1.99
2023-01-19T07:38:12.475Z,2.02
2023-01-19T07:40:44.500Z,2.04
2023-01-19T07:43:16.686Z,2.04
2023-01-19T07:45:48.456Z,2.06
2023-01-19T07:48:20.333Z,2.08
2023-01-19T07:50:52.112Z,2.10
2023-01-19T07:53:23.901Z,2.11
2023-01-19T07:55:58.224Z,2.14
2023-01-19T07:58:29.967Z,2.15
2023-01-19T08:01:02.143Z,2.17
2023-01-19T08:03:34.598Z,2.18
2023-01-19T08:06:07.218Z,2.19
2023-01-19T08:08:39.196Z,2.22
2023-01-19T08:11:11.131Z,2.23
2023-01-19T08:13:43.379Z,2.24
2023-01-19T08:16:15.630Z,2.25
2023-01-19T08:18:47.503Z,2.27
2023-01-19T08:21:19.546Z,2.27
2023-01-19T08:23:55.916Z,2.27
2023-01-19T08:26:32.355Z,2.28
2023-01-19T08:29:06.899Z,2.29
2023-01-19T08:31:39.919Z,2.29
2023-01-19T08:34:12.214Z,2.31
2023-01-19T08:36:44.350Z,2.33
2023-01-19T08:39:18.047Z,2.34
2023-01-19T08:41:50.004Z,2.36
2023-01-19T08:44:22.119Z,2.37
2023-01-19T08:46:54.405Z,2.37
2023-01-19T08:49:26.539Z,2.37
2023-01-19T08:51:58.496Z,2.38
2023-01-19T08:54:30.574Z,2.38
2023-01-19T08:57:02.802Z,2.40
2023-01-19T08:59:34.861Z,2.42
2023-01-19T09:02:06.826Z,2.45
2023-01-19T09:04:38.870Z,2.46
2023-01-19T09:07:11.064Z,2.49
2023-01-19T09:09:43.601Z,2.50
2023-01-19T09:12:16.063Z,2.50
2023-01-19T09:14:48.001Z,2.48
2023-01-19T09:17:20.066Z,2.47
2023-01-19T09:19:52.146Z,2.47
2023-01-19T09:22:24.321Z,2.47
2023-01-19T09:24:56.315Z,2.46
2023-01-19T09:27:28.556Z,2.45
2023-01-19T09:30:00.474Z,2.47
2023-01-19T09:32:32.300Z,2.47
2023-01-19T09:35:04.330Z,2.46
2023-01-19T09:37:36.176Z,2.45
2023-01-19T09:40:10.235Z,2.44
2023-01-19T09:42:44.977Z,2.44
2023-01-19T09:45:20.116Z,2.44
2023-01-19T09:47:52.729Z,2.44
2023-01-19T09:50:28.747Z,2.43
2023-01-19T09:53:05.599Z,2.40
2023-01-19T09:55:39.486Z,2.39
2023-01-19T09:58:16.383Z,2.38
2023-01-19T10:00:51.943Z,2.38
2023-01-19T10:03:25.231Z,2.36
2023-01-19T10:06:03.648Z,2.37
2023-01-19T10:08:42.485Z,2.36
2023-01-19T10:11:34.523Z,2.36
2023-01-19T10:14:19.160Z,2.36
2023-01-19T10:16:54.515Z,2.36
2023-01-19T10:19:31.031Z,2.35
2023-01-19T10:22:09.146Z,2.33
2023-01-19T10:24:43.011Z,2.33
2023-01-19T10:27:18.926Z,2.32
2023-01-19T10:29:51.079Z,2.32
2023-01-19T10:32:24.085Z,2.33
2023-01-19T10:34:58.432Z,2.31
2023-01-19T10:37:34.882Z,2.30
2023-01-19T10:40:28.017Z,2.31
2023-01-19T10:43:00.823Z,2.34
2023-01-19T10:45:36.888Z,2.37
2023-01-19T10:48:13.025Z,2.38
2023-01-19T10:50:44.832Z,2.40
2023-01-19T10:53:25.805Z,2.42
2023-01-19T10:58:54.870Z,2.48
2023-01-19T11:01:28.329Z,2.48
2023-01-19T11:04:05.934Z,2.50
2023-01-19T11:06:38.053Z,2.53
2023-01-19T11:09:19.513Z,2.57
2023-01-19T11:11:53.257Z,2.59
2023-01-19T11:14:26.404Z,2.61
2023-01-19T11:16:59.296Z,2.61
2023-01-19T11:19:33.097Z,2.63
2023-01-19T11:22:21.597Z,2.63
2023-01-19T11:24:53.708Z,2.66
2023-01-19T11:27:25.583Z,2.68
2023-01-19T11:30:05.459Z,2.70
2023-01-19T11:32:37.591Z,2.71
2023-01-19T11:35:34.457Z,2.70
2023-01-19T11:38:16.952Z,2.69
2023-01-19T11:40:54.382Z,2.72
2023-01-19T11:43:43.297Z,2.76
2023-01-19T11:46:21.291Z,2.80
2023-01-19T11:48:58.114Z,2.82
2023-01-19T11:51:35.382Z,2.84
2023-01-19T11:54:15.020Z,2.86
2023-01-19T11:56:48.517Z,2.88
2023-01-19T11:59:21.274Z,2.88
2023-01-19T12:01:57.922Z,2.88
2023-01-19T12:04:32.324Z,2.88
2023-01-19T12:07:07.570Z,2.89
2023-01-19T12:09:44.344Z,2.90
2023-01-19T12:12:22.608Z,2.90
2023-01-19T12:14:58.681Z,2.90
2023-01-19T12:17:33.515Z,2.89
2023-01-19T12:20:15.137Z,2.90
2023-01-19T12:22:50.833Z,2.91
2023-01-19T12:25:26.229Z,2.92
2023-01-19T12:27:59.437Z,2.91
2023-01-19T12:30:32.356Z,2.91
2023-01-19T12:33:38.035Z,2.90
2023-01-19T12:36:14.291Z,2.91
2023-01-19T12:38:49.017Z,2.91
2023-01-19T12:41:29.971Z,2.91
2023-01-19T12:44:24.181Z,2.92
2023-01-19T12:47:03.472Z,2.92
2023-01-19T12:49:40.915Z,2.90
2023-01-19T12:52:34.457Z,2.92
2023-01-19T12:55:23.231Z,2.94
2023-01-19T12:58:01.510Z,2.96
2023-01-19T13:00:41.354Z,2.98
2023-01-19T13:03:53.333Z,2.99
2023-01-19T13:07:05.937Z,3.01
2023-01-19T13:09:38.579Z,3.03
2023-01-19T13:12:27.834Z,3.04
2023-01-19T13:15:35.032Z,3.01
2023-01-19T13:18:08.084Z,3.00
2023-01-19T13:20:48.005Z,3.02
2023-01-19T13:23:23.222Z,3.03
2023-01-19T13:26:00.147Z,3.04
2023-01-19T13:28:39.319Z,3.02
2023-01-19T13:31:12.387Z,3.01
2023-01-19T13:33:51.167Z,3.00
2023-01-19T13:36:27.380Z,3.01
2023-01-19T13:39:01.335Z,3.00
2023-01-19T13:41:36.734Z,2.98
2023-01-19T13:44:11.405Z,2.98
2023-01-19T13:46:44.045Z,2.97
2023-01-19T13:49:20.541Z,2.98
2023-01-19T13:54:54.481Z,3.02
2023-01-19T13:57:27.974Z,2.98
2023-01-19T14:00:19.077Z,2.94
2023-01-19T14:03:02.589Z,2.91
2023-01-19T14:05:36.211Z,2.92
2023-01-19T14:08:15.465Z,2.93
2023-01-19T14:10:48.426Z,2.94
2023-01-19T14:13:22.418Z,2.93
2023-01-19T14:15:56.660Z,2.92
2023-01-19T14:18:31.353Z,2.90
2023-01-19T14:21:06.299Z,2.89
2023-01-19T14:23:49.573Z,2.87
2023-01-19T14:26:47.482Z,2.85
2023-01-19T14:29:26.313Z,2.83
2023-01-19T14:32:13.876Z,2.82
2023-01-19T14:34:47.556Z,2.82
2023-01-19T14:37:22.277Z,2.82
2023-01-19T14:39:56.303Z,2.82
2023-01-19T14:42:30.349Z,2.82
2023-01-19T14:45:04.307Z,2.85
2023-01-19T14:47:41.410Z,2.87
2023-01-19T14:50:22.047Z,2.86
2023-01-19T14:52:57.115Z,2.85
2023-01-19T14:55:35.058Z,2.83
2023-01-19T14:58:13.110Z,2.82
2023-01-19T15:00:46.198Z,2.81
2023-01-19T15:03:18.690Z,2.80
2023-01-19T15:05:52.001Z,2.79
2023-01-19T15:08:28.863Z,2.75
2023-01-19T15:11:01.205Z,2.72
2023-01-19T15:13:33.029Z,2.71
2023-01-19T15:16:05.412Z,2.71
2023-01-19T15:18:38.717Z,2.72
2023-01-19T15:21:14.316Z,2.71
2023-01-19T15:23:46.096Z,2.70
2023-01-19T15:26:19.443Z,2.70
2023-01-19T15:28:51.511Z,2.70
2023-01-19T15:31:25.065Z,2.69
2023-01-19T15:33:57.296Z,2.69
2023-01-19T15:36:29.544Z,2.69
2023-01-19T15:39:01.306Z,2.70
2023-01-19T15:41:33.764Z,2.71
2023-01-19T15:44:06.377Z,2.71
2023-01-19T15:46:38.597Z,2.72
2023-01-19T15:49:10.447Z,2.71
2023-01-19T15:51:42.409Z,2.71
2023-01-19T15:54:15.631Z,2.70
2023-01-19T15:56:47.727Z,2.67
2023-01-19T15:59:19.641Z,2.66
2023-01-19T16:01:52.028Z,2.66
2023-01-19T16:04:24.140Z,2.67
2023-01-19T16:06:56.376Z,2.68
2023-01-19T16:09:28.143Z,2.69
2023-01-19T16:12:00.523Z,2.70
2023-01-19T16:14:32.646Z,2.69
2023-01-19T16:17:05.938Z,2.69
2023-01-19T16:19:37.830Z,2.67
2023-01-19T16:22:09.781Z,2.66
2023-01-19T16:24:41.619Z,2.64
2023-01-19T16:27:13.676Z,2.64
2023-01-19T16:29:45.589Z,2.65
2023-01-19T16:32:18.129Z,2.63
2023-01-19T16:34:49.961Z,2.61
2023-01-19T16:37:22.384Z,2.59
2023-01-19T16:39:54.250Z,2.59
2023-01-19T16:42:26.112Z,2.57
2023-01-19T16:44:58.196Z,2.58
2023-01-19T16:47:30.188Z,2.57
2023-01-19T16:50:02.146Z,2.57
2023-01-19T16:52:34.259Z,2.56
2023-01-19T16:55:09.500Z,2.55
2023-01-19T16:57:41.858Z,2.56
2023-01-19T17:00:15.547Z,2.55
2023-01-19T17:02:47.421Z,2.55
2023-01-19T17:05:19.489Z,2.55
2023-01-19T17:07:51.449Z,2.56
2023-01-19T17:10:23.566Z,2.56
2023-01-19T17:12:55.429Z,2.57
2023-01-19T17:15:27.549Z,2.57
2023-01-19T17:17:59.853Z,2.57
2023-01-19T17:20:33.797Z,2.58
2023-01-19T17:23:04.405Z,2.58
2023-01-19T17:25:36.321Z,2.58
2023-01-19T17:28:08.439Z,2.57
2023-01-19T17:30:40.345Z,2.57
2023-01-19T17:33:12.849Z,2.57
2023-01-19T17:35:46.825Z,2.58
2023-01-19T17:38:19.379Z,2.58
2023-01-19T17:40:51.247Z,2.57
2023-01-19T17:43:23.464Z,2.53
2023-01-19T17:45:55.367Z,2.48
2023-01-19T17:48:27.736Z,2.44
2023-01-19T17:51:05.986Z,2.41
2023-01-19T17:53:39.070Z,2.41
2023-01-19T17:56:13.036Z,2.42
2023-01-19T17:58:45.579Z,2.40
2023-01-19T18:01:19.313Z,2.37
2023-01-19T18:03:52.893Z,2.34
2023-01-19T18:06:25.160Z,2.33
2023-01-19T18:08:57.546Z,2.34
2023-01-19T18:11:29.953Z,2.34
2023-01-19T18:14:02.274Z,2.33
2023-01-19T18:16:34.310Z,2.31
2023-01-19T18:19:06.394Z,2.28
2023-01-19T18:21:38.908Z,2.28
2023-01-19T18:24:10.905Z,2.28
2023-01-19T18:26:42.874Z,2.28
2023-01-19T18:29:16.692Z,2.29
2023-01-19T18:31:48.804Z,2.27
2023-01-19T18:34:20.901Z,2.23
2023-01-19T18:36:52.688Z,2.18
2023-01-19T18:39:24.695Z,2.14
2023-01-19T18:41:56.559Z,2.12
2023-01-19T18:44:28.994Z,2.12
2023-01-19T18:47:00.857Z,2.11
2023-01-19T18:49:32.737Z,2.06
2023-01-19T18:52:05.061Z,2.03
2023-01-19T18:54:37.007Z,2.01
2023-01-19T18:57:08.775Z,1.99
2023-01-19T18:59:42.621Z,1.97
2023-01-19T19:02:14.977Z,1.95
2023-01-19T19:04:47.428Z,1.92
2023-01-19T19:07:19.440Z,1.90
2023-01-19T19:09:51.528Z,1.89
2023-01-19T19:12:23.519Z,1.88
2023-01-19T19:14:55.654Z,1.84
2023-01-19T19:17:27.696Z,1.81
2023-01-19T19:19:59.911Z,1.81
2023-01-19T19:22:32.854Z,1.80
2023-01-19T19:25:04.931Z,1.82
2023-01-19T19:27:37.120Z,1.83
2023-01-19T19:30:11.363Z,1.83
2023-01-19T19:32:43.673Z,1.85
2023-01-19T19:35:18.731Z,1.85
2023-01-19T19:37:51.595Z,1.85
2023-01-19T19:40:23.955Z,1.85
2023-01-19T19:42:58.406Z,1.84
2023-01-19T19:45:30.872Z,1.83
2023-01-19T19:48:02.777Z,1.83
2023-01-19T19:50:37.066Z,1.83
2023-01-19T19:53:08.950Z,1.82
2023-01-19T19:55:41.479Z,1.79
2023-01-19T19:58:13.470Z,1.76
2023-01-19T20:00:46.022Z,1.73
2023-01-19T20:03:17.840Z,1.72
2023-01-19T20:05:49.820Z,1.70
2023-01-19T20:08:21.746Z,1.68
2023-01-19T20:10:53.579Z,1.66
2023-01-19T20:13:25.417Z,1.65
2023-01-19T20:15:57.342Z,1.63
2023-01-19T20:18:29.446Z,1.60
2023-01-19T20:21:01.404Z,1.57
2023-01-19T20:23:33.846Z,1.56
2023-01-19T20:26:09.352Z,1.54
2023-01-19T20:28:41.648Z,1.52
2023-01-19T20:31:16.965Z,1.50
2023-01-19T20:33:49.529Z,1.48
2023-01-19T20:36:22.150Z,1.47
2023-01-19T20:38:55.325Z,1.45
2023-01-19T20:41:28.317Z,1.44
2023-01-19T20:44:00.284Z,1.42
2023-01-19T20:46:32.276Z,1.41
2023-01-19T20:49:04.214Z,1.40
2023-01-19T20:51:37.519Z,1.38
2023-01-19T20:54:10.903Z,1.36
2023-01-19T20:56:43.283Z,1.34
2023-01-19T20:59:15.641Z,1.34
2023-01-19T21:01:48.703Z,1.34
2023-01-19T21:04:22.433Z,1.32
2023-01-19T21:06:54.408Z,1.29
2023-01-19T21:09:26.256Z,1.26
2023-01-19T21:11:58.325Z,1.25
2023-01-19T21:14:30.211Z,1.22
2023-01-19T21:17:02.340Z,1.20
2023-01-19T21:19:34.195Z,1.19
2023-01-19T21:22:06.238Z,1.18
2023-01-19T21:24:38.058Z,1.17
2023-01-19T21:27:10.694Z,1.17
2023-01-19T21:29:42.473Z,1.15
2023-01-19T21:32:15.281Z,1.14
2023-01-19T21:34:47.091Z,1.12
2023-01-19T21:37:19.097Z,1.11
2023-01-19T21:39:50.856Z,1.10
2023-01-19T21:42:22.781Z,1.06
2023-01-19T21:44:54.645Z,1.04
2023-01-19T21:47:26.737Z,1.02
2023-01-19T21:49:58.569Z,1.00
2023-01-19T21:52:30.593Z,0.99
2023-01-19T21:55:02.389Z,0.98
2023-01-19T21:57:34.507Z,0.98
2023-01-19T22:00:08.069Z,0.95
2023-01-19T22:02:40.589Z,0.95
2023-01-19T22:05:13.861Z,0.94
2023-01-19T22:07:46.036Z,0.93
2023-01-19T22:10:18.646Z,0.93
2023-01-19T22:12:50.780Z,0.93
2023-01-19T22:15:22.644Z,0.92
2023-01-19T22:17:54.666Z,0.91
2023-01-19T22:20:26.427Z,0.88
2023-01-19T22:22:58.476Z,0.86
2023-01-19T22:25:30.670Z,0.82
2023-01-19T22:28:02.699Z,0.81
2023-01-19T22:30:34.639Z,0.79
2023-01-19T22:33:06.891Z,0.77
2023-01-19T22:35:38.739Z,0.76
2023-01-19T22:38:11.001Z,0.73
2023-01-19T22:40:42.832Z,0.73
2023-01-19T22:43:14.715Z,0.72
2023-01-19T22:45:46.612Z,0.70
2023-01-19T22:48:18.610Z,0.70
2023-01-19T22:50:50.393Z,0.68
2023-01-19T22:53:22.172Z,0.66
2023-01-19T22:55:53.995Z,0.64
2023-01-19T22:58:25.973Z,0.62
2023-01-19T23:00:57.891Z,0.61
2023-01-19T23:03:30.030Z,0.61
2023-01-19T23:06:06.071Z,0.60
2023-01-19T23:08:38.774Z,0.59
2023-01-19T23:11:13.022Z,0.59
2023-01-19T23:13:45.118Z,0.59
2023-01-19T23:16:17.422Z,0.58
2023-01-19T23:18:49.609Z,0.60
2023-01-19T23:21:23.566Z,0.61
2023-01-19T23:23:55.981Z,0.62
2023-01-19T23:26:28.822Z,0.64
2023-01-19T23:29:02.622Z,0.65
2023-01-19T23:31:36.395Z,0.66
2023-01-19T23:34:10.520Z,0.66
2023-01-19T23:36:41.240Z,0.66
2023-01-19T23:39:16.557Z,0.64
2023-01-19T23:41:49.152Z,0.64
2023-01-19T23:44:21.208Z,0.64
2023-01-19T23:46:53.075Z,0.65
2023-01-19T23:49:25.094Z,0.65
2023-01-19T23:51:56.947Z,0.66
2023-01-19T23:54:28.966Z,0.67
2023-01-19T23:57:00.700Z,0.67
2023-01-19T23:59:32.613Z,0.67
